Time;durP1;ratioP1;P1;durP2;ratioP2;P2;SDS_P1;SDS_P2;PMS_P1;PMS_P2;Temp;Humidity;BMP_temperature;BMP_pressure;BME280_temperature;BME280_humidity;BME280_pressure;Samples;Min_cycle;Max_cycle;Signal;HPM_P1;HPM_P2
2023/07/14 00:00:12;;;;;;;;;;;;;;;24.96;67.70;96825.98;616795;229;67055;-60
2023/07/14 00:02:41;;;;;;;;;;;;;;;24.96;66.55;96823.30;616706;229;65242;-60
2023/07/14 00:05:27;;;;;;;;;;;;;;;24.96;65.94;96823.30;616827;229;64946;-60
2023/07/14 00:07:57;;;;;;;;;;;;;;;24.96;65.84;96812.55;616872;229;64779;-60
2023/07/14 00:10:32;;;;;;;;;;;;;;;24.96;66.95;96818.74;616886;229;65365;-60
2023/07/14 00:13:01;;;;;;;;;;;;;;;24.96;66.87;96817.92;616804;229;64977;-60
2023/07/14 00:15:31;;;;;;;;;;;;;;;24.94;65.74;96812.08;616790;229;65459;-60
2023/07/14 00:17:59;;;;;;;;;;;;;;;24.94;66.81;96812.86;616842;229;63128;-60
2023/07/14 00:20:29;;;;;;;;;;;;;;;24.92;65.60;96801.61;616808;229;64857;-60
2023/07/14 00:22:56;;;;;;;;;;;;;;;24.93;65.09;96803.19;616834;229;67046;-60
2023/07/14 00:25:24;;;;;;;;;;;;;;;24.93;66.42;96792.44;616779;229;65117;-60
2023/07/14 00:27:53;;;;;;;;;;;;;;;24.95;66.57;96800.21;616833;229;67297;-60
2023/07/14 00:30:25;;;;;;;;;;;;;;;24.93;65.38;96797.81;616802;229;67396;-60
2023/07/14 00:32:54;;;;;;;;;;;;;;;24.93;65.75;96800.50;616835;229;65041;-60
2023/07/14 00:35:22;;;;;;;;;;;;;;;24.92;65.05;96798.92;616642;229;66731;-60
2023/07/14 00:37:52;;;;;;;;;;;;;;;24.92;64.55;96779.31;616801;228;43892;-60
2023/07/14 00:40:25;;;;;;;;;;;;;;;24.93;64.55;96786.27;616799;229;65360;-60
2023/07/14 00:42:55;;;;;;;;;;;;;;;24.91;64.17;96783.90;616624;229;65835;-59
2023/07/14 00:45:23;;;;;;;;;;;;;;;24.93;63.99;96776.31;616809;229;67664;-59
2023/07/14 00:47:52;;;;;;;;;;;;;;;24.92;64.09;96766.66;616805;229;62966;-66
2023/07/14 00:50:21;;;;;;;;;;;;;;;24.92;63.71;96763.98;616778;229;66919;-65
2023/07/14 00:52:50;;;;;;;;;;;;;;;24.93;65.25;96738.67;616750;228;67947;-65
2023/07/14 00:55:18;;;;;;;;;;;;;;;24.92;65.06;96730.93;616846;229;64951;-65
2023/07/14 00:57:47;;;;;;;;;;;;;;;24.91;67.58;96724.77;616720;228;68321;-65
2023/07/14 01:00:16;;;;;;;;;;;;;;;24.89;65.89;96716.20;616844;229;64922;-66
2023/07/14 01:02:44;;;;;;;;;;;;;;;24.90;66.18;96715.09;616638;229;64904;-61
2023/07/14 01:05:11;;;;;;;;;;;;;;;24.90;66.53;96714.30;616806;229;68054;-61
2023/07/14 01:07:40;;;;;;;;;;;;;;;24.90;65.52;96716.99;616843;229;66903;-61
2023/07/14 01:10:09;;;;;;;;;;;;;;;24.89;67.68;96713.52;616802;229;63674;-60
2023/07/14 01:12:38;;;;;;;;;;;;;;;24.89;66.29;96720.79;616742;229;67252;-61
2023/07/14 01:15:07;;;;;;;;;;;;;;;24.87;65.30;96713.02;616757;230;66892;-61
2023/07/14 01:17:36;;;;;;;;;;;;;;;24.88;66.73;96709.25;616803;230;63012;-60
2023/07/14 01:20:08;;;;;;;;;;;;;;;24.86;66.36;96695.31;616754;230;67046;-61
2023/07/14 01:22:39;;;;;;;;;;;;;;;24.85;66.80;96698.29;616725;228;67609;-60
2023/07/14 01:25:17;;;;;;;;;;;;;;;24.85;67.75;96699.08;616736;227;65776;-59
2023/07/14 01:27:46;;;;;;;;;;;;;;;24.84;68.50;96702.88;616641;228;64721;-60
2023/07/14 01:30:15;;;;;;;;;;;;;;;24.85;67.02;96709.04;616742;230;67195;-66
2023/07/14 01:32:47;;;;;;;;;;;;;;;24.87;65.75;96712.23;616794;230;62876;-66
2023/07/14 01:35:16;;;;;;;;;;;;;;;24.87;65.60;96714.91;616738;230;67418;-66
2023/07/14 01:37:44;;;;;;;;;;;;;;;24.87;66.49;96717.59;616762;230;66984;-66
2023/07/14 01:40:15;;;;;;;;;;;;;;;24.87;71.18;96712.23;616659;229;48060;-66
2023/07/14 01:42:44;;;;;;;;;;;;;;;24.84;68.46;96734.34;616734;230;67982;-66
2023/07/14 01:45:16;;;;;;;;;;;;;;;24.82;70.38;96731.94;613979;229;63481;-67
2023/07/14 01:47:45;;;;;;;;;;;;;;;24.83;70.42;96735.41;616812;230;62737;-67
2023/07/14 01:50:22;;;;;;;;;;;;;;;24.81;70.10;96735.73;616776;230;66655;-66
2023/07/14 01:52:52;;;;;;;;;;;;;;;24.81;65.82;96746.48;616742;228;67400;-65
2023/07/14 01:55:21;;;;;;;;;;;;;;;24.84;70.39;96755.84;616746;230;65944;-65
2023/07/14 01:57:51;;;;;;;;;;;;;;;24.83;70.81;96765.80;616763;230;65191;-65
2023/07/14 02:00:20;;;;;;;;;;;;;;;24.81;70.77;96767.98;616770;228;64532;-60
2023/07/14 02:02:47;;;;;;;;;;;;;;;24.81;73.07;96784.11;616906;230;37374;-59
2023/07/14 02:05:22;;;;;;;;;;;;;;;24.80;68.92;96788.70;616730;228;67636;-60
2023/07/14 02:07:50;;;;;;;;;;;;;;;24.80;68.66;96782.53;616770;230;65361;-59
2023/07/14 02:10:19;;;;;;;;;;;;;;;24.80;70.38;96790.59;616736;230;65418;-60
2023/07/14 02:12:47;;;;;;;;;;;;;;;24.79;69.32;96805.90;616778;229;67081;-59
2023/07/14 02:15:19;;;;;;;;;;;;;;;24.80;69.69;96804.82;616904;229;64998;-60
2023/07/14 02:17:47;;;;;;;;;;;;;;;24.80;72.62;96804.03;616793;229;62846;-60
2023/07/14 02:20:16;;;;;;;;;;;;;;;24.80;73.82;96812.09;616752;229;67310;-60
2023/07/14 02:22:45;;;;;;;;;;;;;;;24.78;74.05;96807.00;616802;229;66873;-65
2023/07/14 02:25:14;;;;;;;;;;;;;;;24.76;74.72;96817.25;616817;229;65060;-66
2023/07/14 02:27:41;;;;;;;;;;;;;;;24.75;69.54;96839.07;616894;229;64998;-67
2023/07/14 02:30:11;;;;;;;;;;;;;;;24.77;73.16;96843.05;616878;229;64797;-66
2023/07/14 02:32:40;;;;;;;;;;;;;;;24.79;76.73;96851.59;616555;229;62742;-66
2023/07/14 02:35:18;;;;;;;;;;;;;;;24.74;69.18;96849.00;616779;229;67129;-66
2023/07/14 02:38:14;;;;;;;;;;;;;;;24.75;71.58;96844.44;616579;229;67653;-66
2023/07/14 02:40:33;;;;;;;;;;;;;;;24.74;73.19;96838.25;615354;229;65801;-66
2023/07/14 02:43:02;;;;;;;;;;;;;;;24.74;73.57;96837.45;611013;229;64936;-66
2023/07/14 02:45:30;;;;;;;;;;;;;;;24.71;73.41;96836.16;616809;229;65867;-66
2023/07/14 02:48:00;;;;;;;;;;;;;;;24.72;73.41;96839.67;616819;229;65115;-66
2023/07/14 02:50:27;;;;;;;;;;;;;;;24.71;73.16;96840.75;616831;229;67300;-66
2023/07/14 02:52:55;;;;;;;;;;;;;;;24.71;74.28;96838.06;616832;229;64472;-66
2023/07/14 02:55:22;;;;;;;;;;;;;;;24.70;73.91;96852.60;616773;229;62725;-66
2023/07/14 02:57:50;;;;;;;;;;;;;;;24.69;72.31;96859.88;616831;229;67335;-66
2023/07/14 03:00:19;;;;;;;;;;;;;;;24.70;72.50;96857.98;616774;229;67175;-66
2023/07/14 03:02:46;;;;;;;;;;;;;;;24.70;72.13;96882.16;616850;229;62881;-66
2023/07/14 03:05:14;;;;;;;;;;;;;;;24.71;73.99;96902.55;616815;229;64295;-66
2023/07/14 03:07:41;;;;;;;;;;;;;;;24.70;74.14;96923.26;616814;229;67074;-66
2023/07/14 03:10:09;;;;;;;;;;;;;;;24.71;75.18;96934.80;616749;229;65023;-66
2023/07/14 03:12:37;;;;;;;;;;;;;;;24.68;69.46;96927.33;616760;229;65235;-66
2023/07/14 03:15:06;;;;;;;;;;;;;;;24.69;69.82;96934.30;616758;230;64864;-66
2023/07/14 03:17:33;;;;;;;;;;;;;;;24.70;73.34;96939.38;616754;230;65025;-66
2023/07/14 03:20:01;;;;;;;;;;;;;;;24.69;71.71;96955.79;616725;230;67436;-66
2023/07/14 03:22:30;;;;;;;;;;;;;;;24.69;73.11;96959.30;616779;230;64681;-66
2023/07/14 03:25:00;;;;;;;;;;;;;;;24.69;73.49;96951.23;616753;230;63004;-66
2023/07/14 03:27:28;;;;;;;;;;;;;;;24.68;74.71;96964.95;616740;230;64818;-67
2023/07/14 03:29:56;;;;;;;;;;;;;;;24.67;71.95;96969.53;616759;230;67039;-66
2023/07/14 03:32:23;;;;;;;;;;;;;;;24.67;71.98;96969.53;616737;230;65035;-67
2023/07/14 03:34:51;;;;;;;;;;;;;;;24.67;72.95;96963.38;616716;230;66946;-66
2023/07/14 03:37:18;;;;;;;;;;;;;;;24.67;73.77;96982.97;616744;230;67025;-66
2023/07/14 03:39:46;;;;;;;;;;;;;;;24.67;73.39;97003.68;616729;230;62629;-66
2023/07/14 03:42:14;;;;;;;;;;;;;;;24.66;72.33;97034.31;616735;230;67709;-66
2023/07/14 03:44:41;;;;;;;;;;;;;;;24.65;72.39;97038.09;616736;230;66917;-66
2023/07/14 03:47:09;;;;;;;;;;;;;;;24.65;72.15;97054.22;616805;230;64981;-66
2023/07/14 03:49:36;;;;;;;;;;;;;;;24.67;74.28;97057.42;616759;230;68195;-66
2023/07/14 03:52:04;;;;;;;;;;;;;;;24.65;69.65;97063.08;616775;230;67534;-66
2023/07/14 03:54:32;;;;;;;;;;;;;;;24.67;72.01;97057.42;616768;230;65081;-66
2023/07/14 03:56:59;;;;;;;;;;;;;;;24.67;71.21;97073.55;616769;230;67052;-66
2023/07/14 03:59:27;;;;;;;;;;;;;;;24.65;69.00;97078.41;616765;230;64794;-67
2023/07/14 04:01:55;;;;;;;;;;;;;;;24.65;72.19;97087.27;616747;230;65096;-61
2023/07/14 04:04:22;;;;;;;;;;;;;;;24.65;69.66;97091.84;616763;230;68062;-66
2023/07/14 04:06:52;;;;;;;;;;;;;;;24.66;72.20;97098.80;616760;230;65654;-60
2023/07/14 04:09:19;;;;;;;;;;;;;;;24.64;68.40;97095.63;616775;230;64940;-60
2023/07/14 04:11:47;;;;;;;;;;;;;;;24.64;69.28;97101.80;616819;230;66936;-60
2023/07/14 04:14:14;;;;;;;;;;;;;;;24.65;73.40;97116.03;617756;229;67736;-60
2023/07/14 04:16:42;;;;;;;;;;;;;;;24.63;68.14;97120.89;618136;229;62721;-60
2023/07/14 04:19:09;;;;;;;;;;;;;;;24.66;71.87;97131.05;618122;229;66979;-67
2023/07/14 04:21:37;;;;;;;;;;;;;;;24.66;74.01;97152.55;618157;229;64999;-67
2023/07/14 04:24:05;;;;;;;;;;;;;;;24.65;73.18;97148.27;618123;229;63808;-68
2023/07/14 04:26:32;;;;;;;;;;;;;;;24.64;67.55;97152.06;618120;229;67385;-67
2023/07/14 04:29:00;;;;;;;;;;;;;;;24.65;68.47;97159.02;618137;229;68057;-66
2023/07/14 04:31:28;;;;;;;;;;;;;;;24.64;66.78;97155.55;618142;229;66448;-66
2023/07/14 04:33:56;;;;;;;;;;;;;;;24.66;69.86;97157.92;618115;229;65233;-66
2023/07/14 04:36:23;;;;;;;;;;;;;;;24.66;67.39;97177.52;618155;229;65024;-66
2023/07/14 04:38:52;;;;;;;;;;;;;;;24.67;72.46;97195.27;618182;229;63880;-66
2023/07/14 04:41:20;;;;;;;;;;;;;;;24.66;72.84;97214.35;617549;229;67227;-66
2023/07/14 04:43:47;;;;;;;;;;;;;;;24.66;73.03;97242.02;618115;229;67056;-66
2023/07/14 04:46:15;;;;;;;;;;;;;;;24.67;74.21;97248.22;618154;229;65090;-66
2023/07/14 04:48:43;;;;;;;;;;;;;;;24.64;67.64;97263.03;618102;229;67235;-66
2023/07/14 04:51:11;;;;;;;;;;;;;;;24.66;68.19;97285.02;618180;229;66962;-66
2023/07/14 04:53:39;;;;;;;;;;;;;;;24.68;74.01;97290.91;618129;229;65030;-66
2023/07/14 04:56:06;;;;;;;;;;;;;;;24.65;70.27;97307.61;618099;228;67269;-66
2023/07/14 04:58:33;;;;;;;;;;;;;;;24.65;68.77;97317.56;618117;229;67070;-66
2023/07/14 05:01:01;;;;;;;;;;;;;;;24.65;68.85;97312.98;618130;229;62855;-67
2023/07/14 05:03:29;;;;;;;;;;;;;;;24.65;67.07;97329.11;618196;229;64896;-66
2023/07/14 05:05:56;;;;;;;;;;;;;;;24.68;68.52;97322.36;618145;229;66776;-66
2023/07/14 05:08:24;;;;;;;;;;;;;;;24.68;68.22;97327.73;618151;229;63820;-66
2023/07/14 05:10:51;;;;;;;;;;;;;;;24.69;67.85;97318.58;618098;229;67282;-67
2023/07/14 05:13:18;;;;;;;;;;;;;;;24.69;68.94;97319.40;617521;229;67426;-66
2023/07/14 05:15:46;;;;;;;;;;;;;;;24.69;69.44;97332.02;616824;230;65040;-66
2023/07/14 05:18:13;;;;;;;;;;;;;;;24.68;66.99;97331.22;616741;230;65057;-66
2023/07/14 05:20:41;;;;;;;;;;;;;;;24.70;67.17;97330.95;616755;230;65818;-60
2023/07/14 05:23:10;;;;;;;;;;;;;;;24.72;66.69;97329.57;616735;230;63142;-60
2023/07/14 05:25:38;;;;;;;;;;;;;;;24.73;66.32;97314.24;616726;230;67283;-60
2023/07/14 05:28:06;;;;;;;;;;;;;;;24.73;66.43;97316.93;616811;230;67111;-60
2023/07/14 05:30:34;;;;;;;;;;;;;;;24.74;67.57;97337.33;616831;230;64946;-60
2023/07/14 05:33:01;;;;;;;;;;;;;;;24.74;67.08;97340.02;616752;230;66875;-60
2023/07/14 05:35:29;;;;;;;;;;;;;;;24.73;67.47;97336.54;616730;230;66864;-60
2023/07/14 05:37:57;;;;;;;;;;;;;;;24.74;66.68;97319.31;616668;230;62964;-60
2023/07/14 05:40:25;;;;;;;;;;;;;;;24.74;66.70;97322.00;616751;230;65280;-60
2023/07/14 05:42:52;;;;;;;;;;;;;;;24.74;67.47;97332.75;616822;230;67085;-66
2023/07/14 05:45:20;;;;;;;;;;;;;;;24.75;67.61;97339.74;616744;230;65006;-67
2023/07/14 05:47:48;;;;;;;;;;;;;;;24.75;67.89;97333.58;616730;230;67958;-67
2023/07/14 05:50:16;;;;;;;;;;;;;;;24.74;68.03;97337.33;616773;230;66916;-68
2023/07/14 05:52:44;;;;;;;;;;;;;;;24.73;67.78;97331.16;617837;224;65154;-66
2023/07/14 05:55:12;;;;;;;;;;;;;;;24.74;67.18;97337.33;616789;230;67116;-67
2023/07/14 05:57:39;;;;;;;;;;;;;;;24.74;67.82;97340.02;620202;224;66767;-67
2023/07/14 06:00:13;;;;;;;;;;;;;;;24.75;67.70;97338.95;617057;227;63810;-66
2023/07/14 06:02:43;;;;;;;;;;;;;;;24.75;66.68;97342.44;616795;230;47554;-67
2023/07/14 06:05:12;;;;;;;;;;;;;;;24.74;66.29;97334.64;616734;230;66860;-66
2023/07/14 06:07:40;;;;;;;;;;;;;;;24.74;66.63;97337.33;616533;230;62993;-66
2023/07/14 06:10:08;;;;;;;;;;;;;;;24.73;66.29;97320.41;616620;230;64759;-66
2023/07/14 06:12:36;;;;;;;;;;;;;;;24.74;66.67;97321.20;616560;230;64862;-66
2023/07/14 06:15:03;;;;;;;;;;;;;;;24.75;67.80;97328.20;616498;229;62896;-67
2023/07/14 06:17:31;;;;;;;;;;;;;;;24.76;67.22;97313.66;616546;230;66955;-67
2023/07/14 06:19:59;;;;;;;;;;;;;;;24.79;66.35;97305.81;616635;230;66817;-66
2023/07/14 06:22:26;;;;;;;;;;;;;;;24.79;66.59;97299.64;616320;229;63851;-66
2023/07/14 06:24:54;;;;;;;;;;;;;;;24.79;67.01;97295.06;622948;224;64816;-67
2023/07/14 06:27:23;;;;;;;;;;;;;;;24.78;67.18;97285.41;623809;227;65331;-66
2023/07/14 06:29:50;;;;;;;;;;;;;;;24.80;67.76;97282.45;623746;227;65029;-62
2023/07/14 06:32:18;;;;;;;;;;;;;;;24.80;67.55;97271.69;623732;227;65047;-63
2023/07/14 06:34:45;;;;;;;;;;;;;;;24.78;68.30;97247.78;623807;227;67030;-63
2023/07/14 06:37:15;;;;;;;;;;;;;;;24.78;66.83;97236.23;623850;227;47014;-67
2023/07/14 06:39:43;;;;;;;;;;;;;;;24.79;66.85;97227.07;620885;227;67185;-69
2023/07/14 06:42:11;;;;;;;;;;;;;;;24.80;66.46;97224.11;613767;231;64848;-66
2023/07/14 06:44:38;;;;;;;;;;;;;;;24.81;66.04;97225.69;617926;227;65025;-65
2023/07/14 06:47:06;;;;;;;;;;;;;;;24.84;65.87;97224.31;616738;229;66862;-63
2023/07/14 06:49:33;;;;;;;;;;;;;;;24.85;65.89;97230.48;616693;229;67134;-63
2023/07/14 06:52:01;;;;;;;;;;;;;;;24.85;65.45;97222.42;618963;227;65280;-63
2023/07/14 06:54:28;;;;;;;;;;;;;;;24.86;65.61;97218.66;622063;225;67449;-62
2023/07/14 06:56:57;;;;;;;;;;;;;;;24.87;67.04;97218.36;619297;224;67070;-61
2023/07/14 06:59:25;;;;;;;;;;;;;;;24.94;67.10;97208.05;619780;224;62924;-61
2023/07/14 07:01:52;;;;;;;;;;;;;;;24.91;66.77;97202.43;623732;227;67235;-64
2023/07/14 07:04:20;;;;;;;;;;;;;;;24.90;66.94;97201.64;622730;227;67183;-64
2023/07/14 07:06:47;;;;;;;;;;;;;;;24.90;66.90;97193.57;622556;227;65103;-63
2023/07/14 07:09:15;;;;;;;;;;;;;;;24.92;66.70;97194.09;622456;227;67067;-64
2023/07/14 07:11:42;;;;;;;;;;;;;;;24.91;66.69;97186.30;623676;227;64930;-64
2023/07/14 07:14:10;;;;;;;;;;;;;;;24.92;66.45;97185.23;622810;227;63931;-66
2023/07/14 07:16:37;;;;;;;;;;;;;;;24.96;66.53;97183.53;621917;228;64718;-64
2023/07/14 07:19:05;;;;;;;;;;;;;;;24.97;66.40;97177.09;621602;228;66910;-64
2023/07/14 07:21:32;;;;;;;;;;;;;;;24.96;66.38;97181.67;619459;228;64944;-65
2023/07/14 07:24:00;;;;;;;;;;;;;;;24.96;66.43;97178.98;619574;228;64997;-64
2023/07/14 07:26:27;;;;;;;;;;;;;;;24.98;67.01;97171.41;617725;228;67232;-64
2023/07/14 07:28:55;;;;;;;;;;;;;;;25.01;66.92;97180.77;617357;228;65022;-65
2023/07/14 07:31:22;;;;;;;;;;;;;;;25.02;67.09;97177.80;615451;230;64864;-66
2023/07/14 07:33:50;;;;;;;;;;;;;;;25.02;67.06;97177.80;615115;230;64299;-66
2023/07/14 07:36:17;;;;;;;;;;;;;;;25.05;67.05;97186.38;614731;228;62738;-67
2023/07/14 07:38:46;;;;;;;;;;;;;;;25.06;67.14;97193.35;618355;228;67035;-67
2023/07/14 07:41:15;;;;;;;;;;;;;;;25.06;67.08;97193.35;621504;228;67264;-67
2023/07/14 07:43:43;;;;;;;;;;;;;;;25.08;67.01;97194.66;621692;228;64931;-66
2023/07/14 07:46:11;;;;;;;;;;;;;;;25.08;66.76;97191.97;621676;228;64562;-66
2023/07/14 07:48:38;;;;;;;;;;;;;;;25.09;66.54;97198.14;621765;228;64719;-67
2023/07/14 07:51:06;;;;;;;;;;;;;;;25.10;66.47;97194.34;622476;228;65100;-66
2023/07/14 07:53:34;;;;;;;;;;;;;;;25.09;66.60;97193.55;622504;228;67169;-66
2023/07/14 07:56:02;;;;;;;;;;;;;;;25.09;66.58;97198.14;622464;228;64784;-67
2023/07/14 07:58:30;;;;;;;;;;;;;;;25.09;66.57;97192.76;622487;228;62703;-67
2023/07/14 08:01:02;;;;;;;;;;;;;;;25.12;66.48;97200.23;620215;228;66892;-62
2023/07/14 08:03:30;;;;;;;;;;;;;;;25.15;67.12;97191.61;618508;228;66842;-62
2023/07/14 08:06:01;;;;;;;;;;;;;;;25.14;67.00;97196.16;615435;230;65040;-67
2023/07/14 08:08:29;;;;;;;;;;;;;;;25.13;67.17;97196.47;615251;230;67388;-69
2023/07/14 08:10:57;;;;;;;;;;;;;;;25.14;67.13;97189.99;615403;230;66887;-68
2023/07/14 08:13:25;;;;;;;;;;;;;;;25.13;66.98;97199.95;614328;230;62973;-67
2023/07/14 08:15:54;;;;;;;;;;;;;;;25.13;67.38;97199.95;613131;231;67024;-68
2023/07/14 08:18:22;;;;;;;;;;;;;;;25.15;67.33;97187.02;613214;231;66847;-68
2023/07/14 08:20:50;;;;;;;;;;;;;;;25.16;67.55;97187.84;613227;231;62887;-68
2023/07/14 08:23:19;;;;;;;;;;;;;;;25.16;67.51;97182.47;613166;231;66986;-69
2023/07/14 08:25:53;;;;;;;;;;;;;;;25.15;68.02;97175.47;613194;231;66984;-68
2023/07/14 08:28:21;;;;;;;;;;;;;;;25.18;67.86;97177.57;614073;230;64988;-69
2023/07/14 08:30:50;;;;;;;;;;;;;;;25.18;67.81;97174.88;612876;227;64872;-67
2023/07/14 08:33:19;;;;;;;;;;;;;;;25.20;68.01;97176.19;614221;230;67093;-67
2023/07/14 08:35:48;;;;;;;;;;;;;;;25.25;68.15;97169.94;615383;230;65001;-67
2023/07/14 08:38:19;;;;;;;;;;;;;;;25.24;67.65;97163.77;615662;230;47133;-68
2023/07/14 08:40:49;;;;;;;;;;;;;;;25.27;67.23;97169.66;615293;227;65512;-67
2023/07/14 08:43:24;;;;;;;;;;;;;;;25.26;67.07;97171.52;614675;230;65106;-68
2023/07/14 08:45:53;;;;;;;;;;;;;;;25.26;67.01;97163.45;613009;227;68031;-68
2023/07/14 08:48:23;;;;;;;;;;;;;;;25.24;66.99;97165.66;614661;230;64736;-67
2023/07/14 08:50:51;;;;;;;;;;;;;;;25.25;66.86;97159.97;615549;230;64874;-67
2023/07/14 08:53:20;;;;;;;;;;;;;;;25.25;66.94;97157.28;615653;230;64766;-67
2023/07/14 08:55:48;;;;;;;;;;;;;;;25.24;66.93;97160.28;615574;230;67323;-67
2023/07/14 08:58:18;;;;;;;;;;;;;;;25.26;67.29;97152.69;615605;230;64902;-65
2023/07/14 09:00:48;;;;;;;;;;;;;;;25.27;67.40;97151.61;615620;230;66964;-61
2023/07/14 09:03:16;;;;;;;;;;;;;;;25.28;67.39;97155.89;615574;230;66913;-62
2023/07/14 09:05:52;;;;;;;;;;;;;;;25.28;67.29;97149.72;615580;230;62806;-62
2023/07/14 09:08:20;;;;;;;;;;;;;;;25.26;67.31;97144.63;614170;227;67429;-61
2023/07/14 09:11:05;;;;;;;;;;;;;;;25.25;67.23;97143.03;613615;227;67029;-61
2023/07/14 09:13:34;;;;;;;;;;;;;;;25.25;67.17;97146.52;615116;227;65457;-61
2023/07/14 09:16:02;;;;;;;;;;;;;;;25.24;67.36;97133.38;621117;226;65381;-61
2023/07/14 09:18:40;;;;;;;;;;;;;;;25.21;67.51;97131.28;620768;227;65743;-61
2023/07/14 09:21:09;;;;;;;;;;;;;;;25.24;67.68;97130.70;610591;231;63618;-62
2023/07/14 09:23:41;;;;;;;;;;;;;;;25.27;67.78;97132.00;622031;226;67056;-62
2023/07/14 09:26:16;;;;;;;;;;;;;;;25.27;67.85;97134.69;622632;227;64768;-65
2023/07/14 09:28:51;;;;;;;;;;;;;;;25.29;67.86;97132.47;623332;227;63072;-65
2023/07/14 09:34:42;;;;;;;;;;;;;;;25.30;68.01;97129.50;623364;227;42808;-62
2023/07/14 09:37:21;;;;;;;;;;;;;;;25.30;68.24;97126.81;620831;226;66128;-63
2023/07/14 09:39:50;;;;;;;;;;;;;;;25.30;68.15;97137.57;620336;227;67037;-66
2023/07/14 09:42:21;;;;;;;;;;;;;;;25.29;68.34;97133.30;619924;227;72225;-64
2023/07/14 09:44:48;;;;;;;;;;;;;;;25.30;68.11;97123.33;620069;226;60657;-65
2023/07/14 09:47:17;;;;;;;;;;;;;;;25.31;68.10;97127.61;622879;227;66543;-65
2023/07/14 09:49:47;;;;;;;;;;;;;;;25.30;68.31;97124.12;622331;227;67014;-66
2023/07/14 09:52:18;;;;;;;;;;;;;;;25.32;68.46;97130.02;620734;227;63603;-66
2023/07/14 09:54:47;;;;;;;;;;;;;;;25.31;68.58;97120.33;616748;229;67008;-66
2023/07/14 09:57:15;;;;;;;;;;;;;;;25.31;68.55;97117.64;615961;229;66578;-65
2023/07/14 09:59:47;;;;;;;;;;;;;;;25.33;68.54;97122.73;616742;229;64945;-64
2023/07/14 10:02:15;;;;;;;;;;;;;;;25.35;68.58;97125.94;615125;229;67202;-64
2023/07/14 10:04:44;;;;;;;;;;;;;;;25.34;68.80;97121.63;618928;227;66289;-64
2023/07/14 10:07:25;;;;;;;;;;;;;;;25.38;68.60;97117.27;617890;229;64863;-64
2023/07/14 10:10:07;;;;;;;;;;;;;;;25.38;68.34;97109.98;617737;229;66794;-64
2023/07/14 10:12:31;;;;;;;;;;;;;;;25.40;68.22;97102.42;617457;229;67065;-65
2023/07/14 10:15:00;;;;;;;;;;;;;;;25.41;68.11;97114.77;615723;228;64954;-64
2023/07/14 10:17:28;;;;;;;;;;;;;;;25.43;68.18;97112.59;616201;230;65397;-64
2023/07/14 10:20:00;;;;;;;;;;;;;;;25.44;68.34;97108.79;616337;230;64609;-64
2023/07/14 10:22:29;;;;;;;;;;;;;;;25.43;68.20;97101.83;616378;230;62773;-64
2023/07/14 10:24:58;;;;;;;;;;;;;;;25.44;68.31;97098.03;616566;230;66721;-64
2023/07/14 10:27:32;;;;;;;;;;;;;;;25.46;68.22;97106.61;616581;230;67162;-64
2023/07/14 10:30:17;;;;;;;;;;;;;;;25.46;68.33;97095.84;619439;224;62920;-64
2023/07/14 10:32:53;;;;;;;;;;;;;;;25.49;68.21;97099.05;617329;224;66742;-63
2023/07/14 10:35:25;;;;;;;;;;;;;;;25.50;68.23;97098.73;616170;230;67017;-61
2023/07/14 10:37:54;;;;;;;;;;;;;;;25.49;68.12;97094.45;616564;230;62716;-61
2023/07/14 10:40:23;;;;;;;;;;;;;;;25.49;67.95;97088.28;616219;230;65138;-62
2023/07/14 10:42:55;;;;;;;;;;;;;;;25.49;67.69;97091.77;616627;227;66745;-61
2023/07/14 10:45:24;;;;;;;;;;;;;;;25.49;67.70;97086.38;616582;230;64827;-62
2023/07/14 10:47:59;;;;;;;;;;;;;;;25.50;67.70;97084.48;616619;230;64868;-62
2023/07/14 10:50:31;;;;;;;;;;;;;;;25.50;67.49;97096.04;616627;230;64773;-60
2023/07/14 10:53:18;;;;;;;;;;;;;;;25.53;67.38;97083.88;616511;228;64970;-62
2023/07/14 10:55:47;;;;;;;;;;;;;;;25.50;67.33;97079.10;616626;230;64829;-62
2023/07/14 10:58:17;;;;;;;;;;;;;;;25.47;67.26;97086.66;616635;230;64777;-62
2023/07/14 11:00:46;;;;;;;;;;;;;;;25.46;67.33;97086.98;616386;230;64922;-63
2023/07/14 11:03:18;;;;;;;;;;;;;;;25.42;67.42;97081.37;616568;230;67195;-65
2023/07/14 11:05:47;;;;;;;;;;;;;;;25.41;67.29;97085.17;616572;230;66892;-65
2023/07/14 11:08:15;;;;;;;;;;;;;;;25.45;67.17;97075.43;618857;227;64915;-65
2023/07/14 11:10:47;;;;;;;;;;;;;;;25.48;66.65;97076.70;619864;229;67152;-66
2023/07/14 11:13:16;;;;;;;;;;;;;;;25.50;66.53;97079.10;619803;229;67042;-66
2023/07/14 11:15:45;;;;;;;;;;;;;;;25.52;66.39;97079.61;619673;229;64945;-66
2023/07/14 11:18:26;;;;;;;;;;;;;;;25.52;66.30;97072.33;619853;229;65718;-65
2023/07/14 11:20:58;;;;;;;;;;;;;;;25.55;66.05;97069.03;610063;229;64335;-64
2023/07/14 11:23:28;;;;;;;;;;;;;;;25.56;65.96;97072.52;619896;229;63920;-64
2023/07/14 11:25:57;;;;;;;;;;;;;;;25.57;65.65;97066.84;621105;227;64860;-64
2023/07/14 11:28:27;;;;;;;;;;;;;;;25.56;65.42;97072.52;622553;228;65146;-64
2023/07/14 11:30:56;;;;;;;;;;;;;;;25.55;64.99;97065.55;607948;227;64887;-64
2023/07/14 11:33:27;;;;;;;;;;;;;;;25.54;65.01;97062.07;622658;228;67028;-64
2023/07/14 11:35:59;;;;;;;;;;;;;;;25.53;64.96;97062.36;622427;227;67050;-64
2023/07/14 11:38:34;;;;;;;;;;;;;;;25.53;65.04;97067.73;622602;228;65208;-65
2023/07/14 11:41:02;;;;;;;;;;;;;;;25.52;65.14;97061.56;616746;227;64975;-65
2023/07/14 11:43:36;;;;;;;;;;;;;;;25.55;65.49;97062.86;616321;229;64851;-65
2023/07/14 11:46:06;;;;;;;;;;;;;;;25.58;65.55;97062.26;616498;229;62971;-66
2023/07/14 11:48:38;;;;;;;;;;;;;;;25.58;65.53;97057.67;609688;232;64599;-66
2023/07/14 11:51:09;;;;;;;;;;;;;;;25.60;65.49;97062.77;609687;232;63777;-66
2023/07/14 11:53:38;;;;;;;;;;;;;;;25.59;65.51;97061.97;609784;232;65161;-66
2023/07/14 11:56:14;;;;;;;;;;;;;;;25.61;65.47;97059.76;609653;232;67420;-64
2023/07/14 11:58:43;;;;;;;;;;;;;;;25.62;65.54;97057.89;609758;232;67799;-64
2023/07/14 12:01:18;;;;;;;;;;;;;;;25.59;65.46;97056.59;609811;232;64691;-65
2023/07/14 12:03:52;;;;;;;;;;;;;;;25.59;65.34;97053.08;609591;232;64865;-64
2023/07/14 12:06:20;;;;;;;;;;;;;;;25.58;65.25;97056.88;609834;232;65129;-65
2023/07/14 12:09:13;;;;;;;;;;;;;;;25.57;65.29;97048.02;609799;232;62742;-64
2023/07/14 12:11:43;;;;;;;;;;;;;;;25.58;65.22;97048.80;609627;232;65111;-65
2023/07/14 12:14:30;;;;;;;;;;;;;;;25.56;65.33;97046.41;615475;229;67083;-65
2023/07/14 12:16:58;;;;;;;;;;;;;;;25.57;65.06;97055.30;615960;229;63182;-64
2023/07/14 12:19:27;;;;;;;;;;;;;;;25.57;64.71;97048.02;616636;230;64963;-64
2023/07/14 12:22:03;;;;;;;;;;;;;;;25.58;64.45;97044.21;616456;226;67055;-64
2023/07/14 12:24:32;;;;;;;;;;;;;;;25.60;64.30;97042.03;616303;228;64991;-66
2023/07/14 12:27:01;;;;;;;;;;;;;;;25.60;64.14;97042.03;616481;229;67374;-64
2023/07/14 12:29:29;;;;;;;;;;;;;;;25.63;64.16;97051.39;616464;229;67070;-64
2023/07/14 12:31:57;;;;;;;;;;;;;;;25.65;64.62;97043.83;616396;229;65056;-65
2023/07/14 12:34:29;;;;;;;;;;;;;;;25.65;64.48;97041.92;616524;229;46935;-66
2023/07/14 12:36:57;;;;;;;;;;;;;;;25.66;64.49;97040.03;616351;229;64638;-65
2023/07/14 12:39:24;;;;;;;;;;;;;;;25.67;64.70;97045.13;616356;230;63095;-67
2023/07/14 12:41:53;;;;;;;;;;;;;;;25.69;64.76;97050.19;616624;230;67224;-67
2023/07/14 12:44:25;;;;;;;;;;;;;;;25.71;64.94;97050.69;616554;226;67399;-66
2023/07/14 12:46:55;;;;;;;;;;;;;;;25.72;64.85;97036.13;616485;230;65205;-65
2023/07/14 12:49:33;;;;;;;;;;;;;;;25.73;64.88;97029.66;616546;229;67273;-65
2023/07/14 12:52:05;;;;;;;;;;;;;;;25.74;65.04;97025.07;616333;229;64935;-65
2023/07/14 12:54:33;;;;;;;;;;;;;;;25.76;65.26;97033.65;616476;229;65036;-66
2023/07/14 12:57:02;;;;;;;;;;;;;;;25.77;65.32;97025.25;616582;229;64858;-66
2023/07/14 12:59:31;;;;;;;;;;;;;;;25.79;65.22;97027.66;616418;230;67010;-66
2023/07/14 13:01:58;;;;;;;;;;;;;;;25.79;65.22;97022.27;616041;229;65112;-67